Time;durP1;ratioP1;P1;durP2;ratioP2;P2;SDS_P1;SDS_P2;PMS_P1;PMS_P2;Temp;Humidity;BMP_temperature;BMP_pressure;BME280_temperature;BME280_humidity;BME280_pressure;Samples;Min_cycle;Max_cycle;Signal;HPM_P1;HPM_P2
2022/03/04 00:01:58;;;;;;;20.90;15.90;;;;;;;3.58;56.10;100140.38;117342;1181;22311;-55
2022/03/04 00:04:27;;;;;;;23.80;16.40;;;;;;;3.57;56.33;100138.98;117412;1185;21847;-58
2022/03/04 00:06:56;;;;;;;21.90;16.40;;;;;;;3.59;56.28;100139.69;117282;1185;21896;-55
2022/03/04 00:09:24;;;;;;;22.80;16.20;;;;;;;3.62;56.27;100137.82;117399;1185;23619;-55
2022/03/04 00:11:53;;;;;;;20.10;15.60;;;;;;;3.63;56.45;100135.58;117297;1185;21862;-58
2022/03/04 00:14:22;;;;;;;21.60;15.80;;;;;;;3.65;56.32;100134.90;117381;1185;22854;-55
2022/03/04 00:16:51;;;;;;;23.40;16.30;;;;;;;3.67;56.45;100130.59;117327;1185;22081;-55
2022/03/04 00:19:20;;;;;;;22.80;16.00;;;;;;;3.70;56.34;100131.16;117327;1179;23701;-58
2022/03/04 00:21:49;;;;;;;21.60;16.00;;;;;;;3.72;56.50;100129.27;117342;1185;23654;-55
2022/03/04 00:24:19;;;;;;;23.30;16.10;;;;;;;3.75;56.35;100130.50;117370;1185;23615;-58
2022/03/04 00:26:47;;;;;;;22.60;16.40;;;;;;;3.76;56.47;100125.65;117371;1185;22848;-58
2022/03/04 00:29:16;;;;;;;21.40;14.90;;;;;;;3.77;56.41;100127.75;117373;1182;22918;-55
2022/03/04 00:31:46;;;;;;;22.20;15.70;;;;;;;3.78;56.36;100127.23;117338;1185;21883;-55
2022/03/04 00:34:15;;;;;;;23.30;15.50;;;;;;;3.79;56.53;100125.52;117319;1181;22909;-55
2022/03/04 00:36:43;;;;;;;22.00;15.40;;;;;;;3.81;56.44;100124.48;117302;1185;22104;-55
2022/03/04 00:39:13;;;;;;;19.20;14.60;;;;;;;3.81;56.32;100122.58;117335;1184;21852;-55
2022/03/04 00:41:42;;;;;;;18.50;13.70;;;;;;;3.82;56.28;100117.73;117356;1185;23635;-58
2022/03/04 00:44:10;;;;;;;18.70;14.00;;;;;;;3.82;56.43;100120.87;117358;1182;21857;-58
2022/03/04 00:46:39;;;;;;;18.90;13.30;;;;;;;3.83;56.46;100120.18;117431;1185;21884;-55
2022/03/04 00:49:08;;;;;;;17.30;13.30;;;;;;;3.84;56.45;100124.88;117392;1183;21881;-59
2022/03/04 00:51:36;;;;;;;18.60;14.30;;;;;;;3.86;56.29;100125.08;117366;1184;22103;-59
2022/03/04 00:54:05;;;;;;;21.90;15.30;;;;;;;3.87;56.60;100122.84;117421;1182;23072;-58
2022/03/04 00:56:34;;;;;;;17.80;13.40;;;;;;;3.88;56.42;100118.33;117388;1185;22945;-58
2022/03/04 00:59:04;;;;;;;20.50;14.60;;;;;;;3.86;56.56;100116.41;117086;1178;21850;-57
2022/03/04 01:01:33;;;;;;;17.20;12.90;;;;;;;3.86;56.38;100116.22;117386;1184;22613;-55
2022/03/04 01:04:02;;;;;;;17.10;11.50;;;;;;;3.86;56.54;100109.98;117439;1186;23635;-56
2022/03/04 01:06:30;;;;;;;17.60;13.70;;;;;;;3.85;56.58;100109.27;117390;1185;22089;-56
2022/03/04 01:08:59;;;;;;;19.50;12.30;;;;;;;3.85;56.45;100111.89;117383;1185;22155;-56
2022/03/04 01:11:27;;;;;;;16.10;11.80;;;;;;;3.85;56.40;100114.65;117447;1181;22601;-55
2022/03/04 01:13:56;;;;;;;18.10;13.00;;;;;;;3.85;56.38;100115.17;117407;1179;21934;-58
2022/03/04 01:16:25;;;;;;;17.20;12.90;;;;;;;3.85;56.51;100116.40;117408;1185;22097;-55
2022/03/04 01:18:53;;;;;;;17.90;12.40;;;;;;;3.89;56.34;100118.17;117298;1186;22916;-58
2022/03/04 01:21:22;;;;;;;15.40;11.50;;;;;;;3.90;56.28;100115.74;117356;1184;21845;-55
2022/03/04 01:23:50;;;;;;;15.90;12.40;;;;;;;3.91;56.47;100115.60;117384;1185;22932;-59
2022/03/04 01:26:19;;;;;;;19.70;12.60;;;;;;;3.91;56.36;100109.33;117310;1184;23679;-55
2022/03/04 01:28:47;;;;;;;17.10;12.80;;;;;;;3.91;56.34;100112.80;117350;1185;21871;-55
2022/03/04 01:31:16;;;;;;;15.10;11.70;;;;;;;3.92;56.24;100115.60;117257;1184;23635;-57
2022/03/04 01:33:44;;;;;;;19.50;12.80;;;;;;;3.89;56.42;100119.21;117405;1181;21856;-59
2022/03/04 01:36:13;;;;;;;17.20;13.00;;;;;;;3.91;56.35;100115.93;117365;1183;22908;-55
2022/03/04 01:38:42;;;;;;;18.80;13.60;;;;;;;3.92;56.33;100115.08;117339;1182;22617;-55
2022/03/04 01:41:10;;;;;;;15.30;11.40;;;;;;;3.92;56.52;100116.98;117302;1178;23453;-58
2022/03/04 01:43:39;;;;;;;20.80;13.40;;;;;;;3.92;56.27;100116.30;117352;1182;21847;-58
2022/03/04 01:46:15;;;;;;;16.70;12.80;;;;;;;3.92;56.32;100118.55;117394;1184;23595;-59
2022/03/04 01:48:44;;;;;;;16.00;12.00;;;;;;;3.92;56.41;100121.14;117312;1184;22621;-55
2022/03/04 01:51:13;;;;;;;17.20;13.10;;;;;;;3.92;56.35;100124.98;117329;1185;21849;-58
2022/03/04 01:53:42;;;;;;;18.50;13.40;;;;;;;3.93;56.40;100125.86;117383;1184;22979;-57
2022/03/04 01:56:10;;;;;;;17.40;13.40;;;;;;;3.93;56.38;100124.28;117306;1182;22881;-59
2022/03/04 01:58:39;;;;;;;20.80;14.70;;;;;;;3.93;56.35;100124.99;117314;1182;21853;-55
2022/03/04 02:01:07;;;;;;;20.60;16.00;;;;;;;3.93;56.39;100123.77;117334;1182;21842;-56
2022/03/04 02:03:36;;;;;;;22.50;17.20;;;;;;;3.94;56.32;100123.08;117336;1182;23532;-57
2022/03/04 02:06:04;;;;;;;21.70;16.40;;;;;;;3.94;56.23;100121.87;117403;1182;23638;-58
2022/03/04 02:08:33;;;;;;;21.40;16.00;;;;;;;3.95;56.42;100121.36;117356;1185;21963;-55
2022/03/04 02:11:03;;;;;;;22.30;17.60;;;;;;;3.95;56.27;100121.72;117347;1181;21896;-55
2022/03/04 02:13:31;;;;;;;24.00;17.50;;;;;;;3.95;56.26;100124.15;117334;1185;22169;-55
2022/03/04 02:16:00;;;;;;;26.10;19.20;;;;;;;3.95;56.32;100123.11;117297;1185;22912;-56
2022/03/04 02:18:28;;;;;;;24.30;18.80;;;;;;;3.96;56.52;100125.54;117356;1183;22912;-56
2022/03/04 02:20:58;;;;;;;24.50;18.90;;;;;;;3.97;56.38;100123.46;117414;1182;23694;-55
2022/03/04 02:23:26;;;;;;;26.10;19.10;;;;;;;3.97;56.38;100122.77;117289;1185;22915;-58
2022/03/04 02:25:54;;;;;;;25.00;18.90;;;;;;;3.97;56.36;100126.59;117273;1182;22934;-56
2022/03/04 02:28:23;;;;;;;25.90;19.00;;;;;;;3.98;56.42;100131.29;117366;1184;23346;-55
2022/03/04 02:30:51;;;;;;;26.80;19.90;;;;;;;3.98;56.40;100131.80;117370;1181;24137;-56
2022/03/04 02:33:20;;;;;;;25.50;19.30;;;;;;;3.98;56.34;100129.02;117378;1185;22917;-58
2022/03/04 02:35:48;;;;;;;26.10;19.90;;;;;;;3.98;56.33;100129.89;117335;1181;21849;-58
2022/03/04 02:38:17;;;;;;;25.30;18.50;;;;;;;3.97;56.36;100130.94;117051;1186;21842;-55
2022/03/04 02:40:45;;;;;;;24.60;18.60;;;;;;;3.98;56.55;100131.28;117428;1182;22934;-58
2022/03/04 02:43:14;;;;;;;27.40;19.70;;;;;;;3.98;56.40;100130.92;117396;1185;21926;-58
2022/03/04 02:45:42;;;;;;;24.30;18.00;;;;;;;3.99;56.43;100133.88;117462;1183;23592;-57
2022/03/04 02:48:11;;;;;;;24.00;18.40;;;;;;;4.00;56.35;100134.60;117372;1185;21849;-58
2022/03/04 02:50:39;;;;;;;24.00;18.30;;;;;;;4.00;56.46;100137.72;117335;1185;23310;-55
2022/03/04 02:53:08;;;;;;;24.70;18.40;;;;;;;4.01;56.57;100132.52;117329;1186;22864;-56
2022/03/04 02:55:37;;;;;;;22.10;16.70;;;;;;;4.01;56.24;100132.53;117324;1185;22932;-56
2022/03/04 02:58:05;;;;;;;22.80;17.40;;;;;;;4.01;56.47;100133.21;117423;1185;21838;-58
2022/03/04 03:00:34;;;;;;;19.30;14.60;;;;;;;4.00;56.41;100135.29;117417;1183;23760;-57
2022/03/04 03:03:02;;;;;;;22.80;17.10;;;;;;;4.00;56.33;100136.33;117448;1185;21891;-56
2022/03/04 03:05:31;;;;;;;23.40;17.70;;;;;;;4.00;56.45;100134.25;117408;1182;23419;-56
2022/03/04 03:08:00;;;;;;;21.50;16.90;;;;;;;4.00;56.47;100138.42;117425;1182;23473;-57
2022/03/04 03:10:28;;;;;;;24.30;16.80;;;;;;;3.99;56.44;100141.71;117421;1185;23713;-55
2022/03/04 03:12:56;;;;;;;22.20;16.60;;;;;;;4.01;56.50;100141.21;117287;1185;22856;-55
2022/03/04 03:15:25;;;;;;;20.00;15.40;;;;;;;4.02;56.38;100138.44;117323;1185;21851;-57
2022/03/04 03:17:54;;;;;;;19.50;15.80;;;;;;;4.02;56.40;100137.56;117363;1182;21855;-55
2022/03/04 03:20:22;;;;;;;20.40;15.30;;;;;;;4.02;56.30;100137.40;117448;1186;21850;-58
2022/03/04 03:22:51;;;;;;;20.20;15.10;;;;;;;4.01;56.27;100136.35;117400;1182;23595;-57
2022/03/04 03:25:19;;;;;;;19.80;14.70;;;;;;;4.00;56.36;100138.41;117376;1183;22533;-55
2022/03/04 03:27:47;;;;;;;22.30;16.70;;;;;;;4.02;56.33;100135.14;117361;1188;21892;-58
2022/03/04 03:30:16;;;;;;;18.70;14.20;;;;;;;4.03;56.42;100136.55;117340;1177;23449;-56
2022/03/04 03:32:44;;;;;;;21.00;15.50;;;;;;;4.04;56.36;100136.72;117303;1183;23822;-56
2022/03/04 03:35:13;;;;;;;18.60;14.00;;;;;;;4.05;56.44;100138.29;117376;1185;22912;-58
2022/03/04 03:37:41;;;;;;;18.60;14.00;;;;;;;4.03;56.23;100136.54;117439;1185;23615;-55
2022/03/04 03:40:13;;;;;;;17.50;13.40;;;;;;;4.00;56.55;100137.55;117319;1182;23608;-56
2022/03/04 03:42:41;;;;;;;18.40;13.60;;;;;;;4.01;56.39;100134.79;117350;1182;22700;-55
2022/03/04 03:45:10;;;;;;;17.50;13.40;;;;;;;4.02;56.36;100134.79;117363;1185;21853;-56
2022/03/04 03:47:39;;;;;;;16.80;12.70;;;;;;;4.01;56.23;100132.35;117376;1185;21913;-58
2022/03/04 03:50:09;;;;;;;19.20;14.40;;;;;;;4.03;56.40;100135.33;117354;1185;23414;-55
2022/03/04 03:52:37;;;;;;;22.00;16.00;;;;;;;3.99;56.47;100136.50;117353;1182;22601;-56
2022/03/04 03:55:07;;;;;;;21.40;15.40;;;;;;;3.99;56.65;100137.54;117345;1185;21856;-55
2022/03/04 03:57:35;;;;;;;18.70;15.60;;;;;;;3.98;56.43;100134.92;117150;1184;21907;-55
2022/03/04 04:00:05;;;;;;;20.10;14.60;;;;;;;3.99;56.53;100141.70;117324;1185;23425;-57
2022/03/04 04:02:33;;;;;;;20.80;15.20;;;;;;;3.99;56.42;100143.61;117323;1185;21863;-56
2022/03/04 04:05:02;;;;;;;23.20;16.80;;;;;;;3.98;56.71;100143.60;117371;1185;21881;-55
2022/03/04 04:07:30;;;;;;;23.70;16.70;;;;;;;3.98;56.40;100143.44;117347;1185;21839;-55
2022/03/04 04:09:59;;;;;;;20.30;16.20;;;;;;;3.98;56.58;100145.17;117294;1185;22864;-56
2022/03/04 04:12:27;;;;;;;22.60;16.60;;;;;;;3.98;56.61;100147.60;117373;1185;21837;-58
2022/03/04 04:14:56;;;;;;;23.10;17.00;;;;;;;3.99;56.59;100147.77;117381;1180;21857;-55
2022/03/04 04:17:24;;;;;;;22.20;16.40;;;;;;;4.00;56.55;100154.74;117337;1185;23707;-58
2022/03/04 04:19:53;;;;;;;22.80;16.40;;;;;;;3.99;56.59;100158.02;117401;1185;23632;-55
2022/03/04 04:22:22;;;;;;;24.00;17.80;;;;;;;3.98;56.48;100160.11;117366;1184;23430;-56
2022/03/04 04:24:50;;;;;;;19.80;14.70;;;;;;;3.99;56.66;100157.15;117359;1185;22861;-55
2022/03/04 04:27:19;;;;;;;23.00;16.80;;;;;;;4.00;56.59;100162.90;117432;1182;23481;-58
2022/03/04 04:29:48;;;;;;;23.70;16.70;;;;;;;4.04;56.63;100169.90;117292;1182;24156;-59
2022/03/04 04:32:16;;;;;;;21.10;15.70;;;;;;;4.07;56.69;100170.27;117335;1182;22936;-55
2022/03/04 04:34:45;;;;;;;21.20;15.70;;;;;;;4.08;56.62;100173.75;117284;1183;23605;-55
2022/03/04 04:37:13;;;;;;;22.30;15.30;;;;;;;4.09;56.50;100179.31;117364;1185;22842;-56
2022/03/04 04:39:42;;;;;;;23.60;16.60;;;;;;;4.10;56.61;100182.64;117296;1185;23687;-55
2022/03/04 04:42:10;;;;;;;24.20;17.10;;;;;;;4.10;56.40;100180.03;117337;1182;21877;-58
2022/03/04 04:44:39;;;;;;;23.70;17.00;;;;;;;4.11;56.52;100185.25;117388;1185;22935;-58
2022/03/04 04:47:07;;;;;;;26.70;15.20;;;;;;;4.12;56.62;100190.81;117412;1185;22929;-56
2022/03/04 04:49:37;;;;;;;26.60;18.10;;;;;;;4.13;56.56;100197.62;117388;1184;21988;-56
2022/03/04 04:52:06;;;;;;;23.60;17.20;;;;;;;4.12;56.71;100193.60;117348;1182;24201;-55
2022/03/04 04:54:34;;;;;;;23.50;16.60;;;;;;;4.11;56.54;100196.55;117301;1185;21855;-55
2022/03/04 04:57:04;;;;;;;24.80;15.90;;;;;;;4.09;56.56;100200.85;117382;1182;22235;-58
2022/03/04 04:59:33;;;;;;;22.90;15.50;;;;;;;4.06;56.53;100205.50;117363;1185;22854;-58
2022/03/04 05:02:01;;;;;;;22.50;15.60;;;;;;;4.04;56.34;100204.79;117328;1184;21890;-59
2022/03/04 05:04:30;;;;;;;24.70;16.50;;;;;;;4.04;56.53;100205.83;117397;1183;21868;-59
2022/03/04 05:06:59;;;;;;;23.80;15.90;;;;;;;4.04;56.46;100206.01;117340;1185;22540;-59
2022/03/04 05:09:27;;;;;;;22.40;15.80;;;;;;;4.05;56.67;100205.67;117363;1182;21855;-59
2022/03/04 05:11:56;;;;;;;28.00;18.80;;;;;;;4.08;56.54;100197.73;117378;1185;21867;-56
2022/03/04 05:14:25;;;;;;;23.90;17.20;;;;;;;4.10;56.53;100197.91;117332;1184;23113;-56
2022/03/04 05:16:53;;;;;;;25.40;18.30;;;;;;;4.11;56.52;100197.93;117388;1183;23000;-59
2022/03/04 05:19:22;;;;;;;27.50;18.90;;;;;;;4.11;56.63;100194.64;117383;1185;23297;-58
2022/03/04 05:21:50;;;;;;;25.70;17.70;;;;;;;4.12;56.55;100197.94;117372;1185;22931;-56
2022/03/04 05:24:19;;;;;;;25.50;18.40;;;;;;;4.13;56.59;100197.07;117316;1185;21854;-59
2022/03/04 05:26:47;;;;;;;27.20;18.70;;;;;;;4.14;56.53;100201.09;117260;1185;22171;-59
2022/03/04 05:29:16;;;;;;;24.40;17.80;;;;;;;4.17;56.54;100207.19;117061;1186;23689;-58
2022/03/04 05:31:44;;;;;;;29.30;20.00;;;;;;;4.19;56.48;100214.35;117289;1181;22002;-58
2022/03/04 05:34:13;;;;;;;24.70;17.20;;;;;;;4.22;56.60;100218.89;117303;1179;23681;-55
2022/03/04 05:36:42;;;;;;;23.80;16.60;;;;;;;4.25;56.62;100222.04;118642;1184;21865;-56
2022/03/04 05:39:10;;;;;;;22.60;15.30;;;;;;;4.27;56.66;100226.06;117402;1185;23631;-56
2022/03/04 05:41:39;;;;;;;23.80;17.20;;;;;;;4.29;56.64;100227.65;117414;1184;22426;-56
2022/03/04 05:44:07;;;;;;;21.60;16.20;;;;;;;4.35;56.50;100228.58;117293;1185;23669;-58
2022/03/04 05:46:36;;;;;;;29.20;18.40;;;;;;;4.35;56.58;100233.98;117305;1182;22758;-59
2022/03/04 05:49:05;;;;;;;25.70;17.60;;;;;;;4.40;56.35;100239.06;117358;1185;22913;-56
2022/03/04 05:51:34;;;;;;;23.60;15.70;;;;;;;4.44;56.55;100239.79;117365;1185;21856;-56
2022/03/04 05:54:03;;;;;;;29.80;19.20;;;;;;;4.46;56.45;100242.23;117394;1184;23455;-56
2022/03/04 05:56:31;;;;;;;26.00;17.40;;;;;;;4.48;56.40;100243.66;117339;1185;21850;-59
2022/03/04 05:59:00;;;;;;;27.40;18.00;;;;;;;4.49;56.51;100242.98;117328;1181;21852;-59
2022/03/04 06:01:28;;;;;;;27.00;17.70;;;;;;;4.50;56.36;100242.45;117332;1184;21892;-59
2022/03/04 06:03:58;;;;;;;26.00;17.30;;;;;;;4.52;56.46;100247.70;117334;1182;22911;-56
2022/03/04 06:06:26;;;;;;;23.50;16.20;;;;;;;4.56;56.54;100245.31;117258;1185;24198;-58
2022/03/04 06:08:55;;;;;;;23.70;16.30;;;;;;;4.60;56.53;100248.83;117329;1184;23720;-58
2022/03/04 06:11:25;;;;;;;21.30;14.70;;;;;;;4.67;56.50;100251.66;117295;1185;21846;-55
2022/03/04 06:13:53;;;;;;;22.70;15.60;;;;;;;4.69;56.67;100251.16;117219;1184;23430;-58
2022/03/04 06:16:22;;;;;;;24.40;16.40;;;;;;;4.73;56.59;100249.99;117293;1183;21891;-58
2022/03/04 06:18:51;;;;;;;27.20;18.30;;;;;;;4.77;56.56;100251.08;117327;1184;21947;-56
2022/03/04 06:21:20;;;;;;;25.20;18.20;;;;;;;4.70;56.74;100252.21;117449;1185;22057;-56
2022/03/04 06:23:49;;;;;;;25.70;17.60;;;;;;;4.72;56.97;100251.37;117318;1181;23625;-58
2022/03/04 06:26:17;;;;;;;25.70;16.70;;;;;;;4.75;56.97;100254.70;117265;1182;22104;-55
2022/03/04 06:28:46;;;;;;;25.80;18.00;;;;;;;4.76;56.85;100256.98;117346;1183;22864;-56
2022/03/04 06:31:14;;;;;;;24.50;16.10;;;;;;;4.78;56.85;100260.46;117283;1186;23600;-56
2022/03/04 06:33:44;;;;;;;26.20;17.40;;;;;;;4.79;56.91;100261.70;117367;1185;21881;-57
2022/03/04 06:36:13;;;;;;;24.70;16.20;;;;;;;4.79;56.91;100259.98;117351;1185;22899;-59
2022/03/04 06:38:43;;;;;;;25.00;17.20;;;;;;;4.81;57.19;100257.55;117365;1185;21938;-56
2022/03/04 06:41:14;;;;;;;22.30;16.00;;;;;;;4.81;56.85;100258.23;117464;1185;22642;-58
2022/03/04 06:43:43;;;;;;;25.70;17.50;;;;;;;4.82;57.07;100256.33;117322;1185;24208;-57
2022/03/04 06:46:11;;;;;;;27.70;17.70;;;;;;;4.82;56.98;100260.67;117348;1185;23457;-55
2022/03/04 06:48:40;;;;;;;23.90;16.60;;;;;;;4.84;57.06;100263.84;117402;1185;21850;-59
2022/03/04 06:51:08;;;;;;;27.80;17.90;;;;;;;4.88;57.02;100264.03;117398;1185;21874;-56
2022/03/04 06:53:39;;;;;;;26.00;17.50;;;;;;;4.91;57.05;100261.10;117427;1184;23424;-58
2022/03/04 06:56:08;;;;;;;26.40;17.50;;;;;;;4.95;57.04;100253.48;117391;1185;22022;-56
2022/03/04 06:58:37;;;;;;;29.20;18.90;;;;;;;5.00;57.32;100254.92;117377;1185;22930;-58
2022/03/04 07:01:06;;;;;;;24.40;17.60;;;;;;;5.06;57.32;100255.68;117404;1185;22334;-59
2022/03/04 07:03:34;;;;;;;27.40;18.10;;;;;;;5.14;57.30;100255.90;117234;1185;23586;-56
2022/03/04 07:06:03;;;;;;;25.20;17.60;;;;;;;5.22;57.49;100256.49;117332;1185;23429;-58
2022/03/04 07:08:36;;;;;;;23.50;17.00;;;;;;;5.25;57.09;100253.91;117310;1185;22646;-56
2022/03/04 07:11:05;;;;;;;27.10;18.30;;;;;;;5.29;57.14;100259.50;117304;1185;21914;-56
2022/03/04 07:13:38;;;;;;;24.60;17.10;;;;;;;5.32;57.22;100260.56;117310;1182;21850;-58
2022/03/04 07:16:07;;;;;;;23.60;17.00;;;;;;;5.35;57.01;100258.48;117370;1185;24160;-55
2022/03/04 07:18:56;;;;;;;25.60;17.40;;;;;;;5.39;57.24;100258.53;117373;1185;21908;-59
2022/03/04 07:21:24;;;;;;;27.00;18.10;;;;;;;5.46;57.14;100261.02;117423;1184;21868;-59
2022/03/04 07:23:57;;;;;;;24.20;16.70;;;;;;;5.53;57.01;100264.20;117424;1184;23534;-58
2022/03/04 07:26:26;;;;;;;26.20;17.50;;;;;;;5.58;57.06;100267.36;117353;1184;21983;-59
2022/03/04 07:28:54;;;;;;;27.30;19.30;;;;;;;5.60;57.03;100269.80;117323;1185;23566;-59
2022/03/04 07:31:24;;;;;;;27.90;19.00;;;;;;;5.59;57.03;100269.11;117343;1189;23517;-59
2022/03/04 07:33:52;;;;;;;25.20;17.40;;;;;;;5.58;57.16;100264.05;117268;1186;21852;-58
2022/03/04 07:36:21;;;;;;;25.40;17.10;;;;;;;5.58;57.01;100266.83;117352;1185;23521;-57
2022/03/04 07:38:50;;;;;;;26.70;17.70;;;;;;;5.64;57.19;100268.26;117455;1185;22921;-58
2022/03/04 07:41:19;;;;;;;23.80;16.50;;;;;;;5.74;57.06;100266.41;117392;1185;21857;-57
2022/03/04 07:43:47;;;;;;;26.60;18.70;;;;;;;5.83;57.35;100266.80;117345;1185;23667;-57
2022/03/04 07:46:17;;;;;;;29.40;19.50;;;;;;;5.84;57.39;100271.34;117354;1185;23528;-57
2022/03/04 07:48:46;;;;;;;27.10;18.50;;;;;;;5.85;57.04;100266.82;117395;1185;22910;-57
2022/03/04 07:51:15;;;;;;;33.50;18.50;;;;;;;5.89;57.29;100266.84;117266;1185;22909;-56
2022/03/04 07:53:43;;;;;;;27.20;18.60;;;;;;;5.97;57.45;100263.75;119181;1183;24194;-55
2022/03/04 07:56:12;;;;;;;25.50;16.60;;;;;;;6.16;57.70;100265.59;117393;1185;22909;-55
2022/03/04 07:58:40;;;;;;;22.60;16.50;;;;;;;6.37;57.72;100270.90;117494;1184;23531;-55
2022/03/04 08:01:09;;;;;;;22.50;16.10;;;;;;;6.55;57.73;100272.86;117398;1185;23548;-55
2022/03/04 08:03:54;;;;;;;21.40;15.60;;;;;;;6.66;57.50;100270.62;117275;1185;23535;-56
2022/03/04 08:06:23;;;;;;;21.70;14.70;;;;;;;6.69;57.22;100270.11;117319;1185;23703;-58
2022/03/04 08:08:52;;;;;;;19.40;13.80;;;;;;;6.66;57.14;100273.92;117415;1181;21901;-58
2022/03/04 08:11:22;;;;;;;19.00;13.00;;;;;;;6.63;57.24;100274.45;117315;1185;23120;-59
2022/03/04 08:13:51;;;;;;;18.10;13.50;;;;;;;6.62;57.21;100273.77;117312;1185;22908;-60
2022/03/04 08:16:20;;;;;;;21.30;14.30;;;;;;;6.67;57.40;100275.50;117309;1185;22620;-60
2022/03/04 08:18:50;;;;;;;17.40;12.40;;;;;;;6.76;57.23;100273.78;117100;1186;22744;-55
2022/03/04 08:21:18;;;;;;;16.70;12.40;;;;;;;6.84;57.33;100272.23;117355;1185;21865;-54
2022/03/04 08:23:47;;;;;;;16.20;12.40;;;;;;;6.87;57.29;100273.27;117372;1185;22615;-58
2022/03/04 08:26:16;;;;;;;16.70;11.90;;;;;;;6.89;57.20;100274.49;117320;1185;21875;-57
2022/03/04 08:28:45;;;;;;;16.60;11.80;;;;;;;6.89;57.08;100275.37;117339;1185;21864;-60
2022/03/04 08:31:14;;;;;;;15.30;10.80;;;;;;;6.83;57.23;100275.36;117351;1185;21851;-58
2022/03/04 08:33:44;;;;;;;14.10;11.40;;;;;;;6.81;57.04;100280.77;117902;1185;21851;-55
2022/03/04 08:36:13;;;;;;;;;;;;;;;6.78;57.02;100281.98;117238;1185;22322;-57
2022/03/04 08:38:42;;;;;;;14.00;10.60;;;;;;;6.75;56.89;100288.27;117357;1185;23439;-56
2022/03/04 08:41:11;;;;;;;13.10;9.90;;;;;;;6.70;56.83;100289.13;117311;1183;21848;-59
2022/03/04 08:43:40;;;;;;;13.10;9.70;;;;;;;6.67;56.99;100288.40;117337;1185;22747;-56
2022/03/04 08:46:13;;;;;;;12.30;9.30;;;;;;;6.64;57.17;100292.41;117341;1185;21871;-58
2022/03/04 08:48:42;;;;;;;12.30;9.30;;;;;;;6.63;57.06;100290.67;117429;1181;21851;-56
2022/03/04 08:51:10;;;;;;;12.30;9.20;;;;;;;6.69;57.23;100288.41;117424;1184;23474;-58
2022/03/04 08:53:39;;;;;;;12.90;10.00;;;;;;;6.79;57.13;100289.66;117355;1185;23568;-58
2022/03/04 08:56:08;;;;;;;12.30;9.10;;;;;;;6.94;57.48;100289.33;117891;1185;21813;-56
2022/03/04 08:58:36;;;;;;;12.40;9.00;;;;;;;7.13;57.53;100290.55;117370;1185;21906;-59
2022/03/04 09:01:05;;;;;;;12.60;8.70;;;;;;;7.27;57.48;100289.70;117309;1185;23446;-58
2022/03/04 09:03:34;;;;;;;12.20;8.90;;;;;;;7.34;57.54;100289.34;117383;1185;21825;-56
2022/03/04 09:06:03;;;;;;;12.50;8.90;;;;;;;7.43;57.51;100290.22;117332;1185;22910;-57
2022/03/04 09:08:34;;;;;;;15.10;10.80;;;;;;;7.48;57.48;100290.91;117355;1185;21855;-57
2022/03/04 09:11:06;;;;;;;14.80;10.00;;;;;;;7.53;57.37;100287.40;117354;1184;23430;-56
2022/03/04 09:13:34;;;;;;;13.70;9.10;;;;;;;7.53;57.23;100290.02;117379;1184;21885;-58
2022/03/04 09:16:23;;;;;;;12.10;8.50;;;;;;;7.53;57.20;100292.11;117250;1185;21861;-56
2022/03/04 09:18:52;;;;;;;11.10;8.20;;;;;;;7.53;57.35;100295.61;117323;1185;22028;-58
2022/03/04 09:21:20;;;;;;;9.80;7.30;;;;;;;7.59;57.49;100296.48;117215;1185;21850;-59
2022/03/04 09:23:49;;;;;;;11.90;8.40;;;;;;;7.68;57.51;100292.98;117311;1185;21856;-56
2022/03/04 09:26:17;;;;;;;11.50;7.60;;;;;;;7.72;57.41;100294.90;117381;1185;22517;-56
2022/03/04 09:28:47;;;;;;;10.90;7.50;;;;;;;7.68;57.23;100293.67;117389;1185;23430;-57
2022/03/04 09:31:15;;;;;;;11.80;8.40;;;;;;;7.65;57.22;100294.55;117336;1185;21849;-59
2022/03/04 09:33:44;;;;;;;13.70;8.90;;;;;;;7.61;57.06;100294.21;117354;1185;23750;-57
2022/03/04 09:36:14;;;;;;;12.40;8.60;;;;;;;7.56;57.23;100293.69;117398;1184;21849;-57
2022/03/04 09:38:43;;;;;;;14.70;9.30;;;;;;;7.51;57.07;100295.61;117331;1185;21840;-58
2022/03/04 09:41:11;;;;;;;17.20;9.70;;;;;;;7.50;57.03;100292.48;117420;1185;23452;-56
2022/03/04 09:43:40;;;;;;;12.90;9.00;;;;;;;7.51;57.01;100288.98;117422;1185;23000;-59
2022/03/04 09:46:09;;;;;;;11.50;7.60;;;;;;;7.51;57.26;100289.15;117448;1185;21856;-59
2022/03/04 09:48:40;;;;;;;10.80;7.90;;;;;;;7.56;57.32;100287.58;117409;1185;21866;-56
2022/03/04 09:51:09;;;;;;;8.80;6.60;;;;;;;7.67;57.26;100285.11;118763;1185;21839;-59
2022/03/04 09:53:37;;;;;;;9.50;6.50;;;;;;;7.74;57.20;100286.32;117975;1185;21840;-59
2022/03/04 09:56:06;;;;;;;9.30;6.50;;;;;;;7.78;57.21;100286.31;117431;1185;24147;-58
2022/03/04 09:58:37;;;;;;;9.00;6.30;;;;;;;7.79;57.13;100287.71;117361;1185;22620;-56
2022/03/04 10:01:12;;;;;;;10.70;7.60;;;;;;;7.71;56.91;100289.30;117365;1185;24129;-57
2022/03/04 10:03:46;;;;;;;13.20;8.90;;;;;;;7.65;57.01;100287.56;117326;1185;21886;-59
2022/03/04 10:06:18;;;;;;;16.20;9.70;;;;;;;7.62;56.98;100285.48;117291;1185;21847;-59
2022/03/04 10:08:52;;;;;;;13.30;8.80;;;;;;;7.61;57.02;100286.00;117445;1185;21890;-56
2022/03/04 10:11:34;;;;;;;10.40;7.70;;;;;;;7.61;57.13;100280.40;117347;1185;22641;-56
2022/03/04 10:14:09;;;;;;;10.10;7.50;;;;;;;7.63;57.19;100282.68;117927;1185;21860;-59
2022/03/04 10:16:40;;;;;;;11.00;8.00;;;;;;;7.69;57.14;100286.68;117368;1185;21918;-57
2022/03/04 10:19:19;;;;;;;23.20;13.20;;;;;;;7.76;56.93;100284.57;117434;1184;21850;-59
2022/03/04 10:21:59;;;;;;;17.00;9.90;;;;;;;7.82;57.05;100287.00;117438;1185;21850;-57
2022/03/04 10:24:28;;;;;;;14.20;7.80;;;;;;;7.87;57.04;100285.41;117395;1184;21941;-57
2022/03/04 10:27:24;;;;;;;9.50;6.30;;;;;;;7.91;56.95;100292.59;117445;1185;23630;-59
2022/03/04 10:29:53;;;;;;;9.00;6.50;;;;;;;7.95;57.06;100292.22;117264;1185;21907;-57
2022/03/04 10:32:24;;;;;;;11.60;6.90;;;;;;;7.95;56.84;100291.52;117309;1185;21859;-59
2022/03/04 10:34:56;;;;;;;9.70;6.30;;;;;;;7.94;56.96;100290.12;117267;1185;23461;-57
2022/03/04 10:37:48;;;;;;;9.90;7.40;;;;;;;7.97;56.92;100285.73;119065;1183;21854;-57
2022/03/04 10:40:18;;;;;;;9.70;7.00;;;;;;;7.99;56.93;100278.91;117324;1184;23430;-59
2022/03/04 10:42:55;;;;;;;9.40;6.40;;;;;;;7.98;56.94;100275.25;117361;1185;21850;-59
2022/03/04 10:45:27;;;;;;;24.30;11.60;;;;;;;7.99;57.07;100271.23;119431;1185;21779;-58
2022/03/04 10:48:14;;;;;;;8.80;6.60;;;;;;;8.00;57.16;100271.05;119358;1185;22108;-57
2022/03/04 10:50:47;;;;;;;8.20;5.80;;;;;;;8.07;57.21;100270.51;119481;1184;21749;-58
2022/03/04 10:53:17;;;;;;;7.90;5.50;;;;;;;8.09;57.01;100271.55;119048;1184;21864;-57
2022/03/04 10:55:50;;;;;;;8.70;5.90;;;;;;;8.04;56.83;100270.69;117332;1184;21856;-60
2022/03/04 10:58:30;;;;;;;7.10;5.40;;;;;;;7.97;56.77;100270.70;117368;1185;22936;-58
2022/03/04 11:01:02;;;;;;;8.90;5.30;;;;;;;7.93;56.84;100271.95;117305;1185;24143;-57
2022/03/04 11:03:32;;;;;;;8.40;5.60;;;;;;;7.89;56.74;100269.34;117346;1180;21855;-59
2022/03/04 11:06:19;;;;;;;8.00;5.40;;;;;;;7.88;56.92;100264.46;117321;1185;24120;-57
2022/03/04 11:08:48;;;;;;;7.60;5.00;;;;;;;7.90;56.77;100263.23;117342;1183;21960;-57
2022/03/04 11:11:17;;;;;;;12.80;7.50;;;;;;;7.86;56.77;100261.14;119494;1184;21778;-57
2022/03/04 11:13:45;;;;;;;9.70;6.20;;;;;;;7.84;56.74;100262.54;117338;1185;21856;-60
2022/03/04 11:16:34;;;;;;;8.10;5.70;;;;;;;7.79;56.71;100265.00;117184;1185;21848;-56
2022/03/04 11:19:03;;;;;;;8.10;5.50;;;;;;;7.73;56.67;100263.63;119092;1185;22616;-57
2022/03/04 11:21:32;;;;;;;10.30;6.90;;;;;;;7.74;56.55;100263.79;117225;1186;23572;-57
2022/03/04 11:24:03;;;;;;;8.70;6.50;;;;;;;7.69;56.47;100262.41;117358;1185;24145;-56